Time;durP1;ratioP1;P1;durP2;ratioP2;P2;SDS_P1;SDS_P2;PMS_P1;PMS_P2;Temp;Humidity;BMP_temperature;BMP_pressure;BME280_temperature;BME280_humidity;BME280_pressure;Samples;Min_cycle;Max_cycle;Signal;HPM_P1;HPM_P2
2021/08/07 00:01:51;;;;;;;4.23;2.50;;;15.50;99.90;;;;;;4160760;28;20696;-80
2021/08/07 00:03:54;;;;;;;2.97;2.40;;;15.50;99.90;;;;;;4145153;28;20218;-80
2021/08/07 00:05:57;;;;;;;3.27;2.40;;;15.50;99.90;;;;;;4147018;28;20222;-80
2021/08/07 00:07:59;;;;;;;4.20;2.33;;;15.50;99.90;;;;;;4150439;28;20639;-81
2021/08/07 00:10:00;;;;;;;2.97;2.50;;;15.50;99.90;;;;;;4150461;28;20282;-80
2021/08/07 00:12:02;;;;;;;4.07;2.30;;;15.40;99.90;;;;;;4148259;28;20210;-80
2021/08/07 00:14:04;;;;;;;6.17;2.40;;;15.40;99.90;;;;;;4149878;28;20203;-81
2021/08/07 00:16:06;;;;;;;5.33;2.53;;;15.40;99.90;;;;;;4150555;28;20228;-80
2021/08/07 00:18:08;;;;;;;3.30;2.63;;;15.40;99.90;;;;;;4150389;28;20287;-80
2021/08/07 00:20:10;;;;;;;4.83;2.47;;;15.40;99.90;;;;;;4141119;28;20210;-81
2021/08/07 00:22:15;;;;;;;4.80;2.30;;;15.40;99.90;;;;;;4145274;28;20230;-81
2021/08/07 00:24:17;;;;;;;4.67;2.27;;;15.50;99.90;;;;;;4148739;28;20295;-80
2021/08/07 00:26:18;;;;;;;3.20;2.00;;;15.40;99.90;;;;;;4151070;28;20210;-81
2021/08/07 00:28:20;;;;;;;4.53;2.50;;;15.40;99.90;;;;;;4148347;28;20238;-81
2021/08/07 00:30:22;;;;;;;4.27;2.30;;;15.40;99.90;;;;;;4141230;28;20207;-80
2021/08/07 00:32:24;;;;;;;4.53;2.40;;;15.40;99.90;;;;;;4151236;28;20232;-81
2021/08/07 00:34:25;;;;;;;3.90;2.57;;;15.40;99.90;;;;;;4144266;28;20738;-80
2021/08/07 00:36:27;;;;;;;2.40;2.20;;;15.50;99.90;;;;;;4149838;28;20598;-80
2021/08/07 00:38:30;;;;;;;4.67;2.50;;;15.40;99.90;;;;;;4149006;28;20241;-80
2021/08/07 00:40:32;;;;;;;5.13;2.87;;;15.40;99.90;;;;;;4153710;28;20225;-81
2021/08/07 00:42:33;;;;;;;4.57;2.23;;;15.40;99.90;;;;;;4159505;28;20286;-81
2021/08/07 00:44:35;;;;;;;5.17;2.30;;;15.40;99.90;;;;;;4148951;28;20266;-80
2021/08/07 00:46:37;;;;;;;6.30;2.40;;;15.40;99.90;;;;;;4149980;28;20215;-80
2021/08/07 00:48:39;;;;;;;4.00;2.40;;;15.30;99.90;;;;;;4147195;28;20229;-80
2021/08/07 00:50:40;;;;;;;3.53;2.33;;;15.40;99.90;;;;;;4150902;28;20229;-80
2021/08/07 00:52:43;;;;;;;4.87;2.77;;;15.30;99.90;;;;;;4134237;28;20214;-80
2021/08/07 00:54:46;;;;;;;3.67;2.57;;;15.30;99.90;;;;;;4143466;28;20668;-80
2021/08/07 00:56:48;;;;;;;5.73;2.50;;;15.30;99.90;;;;;;4151108;28;20621;-80
2021/08/07 00:58:49;;;;;;;3.13;2.50;;;15.20;99.90;;;;;;4150239;28;20288;-80
2021/08/07 01:00:51;;;;;;;3.50;2.00;;;15.20;99.90;;;;;;4159182;28;20226;-80
2021/08/07 01:03:02;;;;;;;4.43;2.40;;;15.20;99.90;;;;;;4152244;28;20238;-80
2021/08/07 01:05:07;;;;;;;3.67;2.53;;;15.20;99.90;;;;;;4142629;28;20206;-80
2021/08/07 01:07:14;;;;;;;5.13;2.50;;;15.20;99.90;;;;;;4152640;28;20277;-80
2021/08/07 01:09:22;;;;;;;4.67;2.30;;;15.10;99.90;;;;;;4152931;28;20634;-80
2021/08/07 01:11:33;;;;;;;4.23;2.50;;;15.10;99.90;;;;;;4152070;28;20708;-80
2021/08/07 01:13:40;;;;;;;6.20;2.77;;;15.10;99.90;;;;;;4154621;28;20631;-80
2021/08/07 01:15:46;;;;;;;3.27;2.70;;;15.10;99.90;;;;;;4151937;28;20471;-79
2021/08/07 01:17:49;;;;;;;3.67;2.30;;;15.10;99.90;;;;;;4163638;28;20241;-80
2021/08/07 01:20:01;;;;;;;4.50;2.30;;;15.00;99.90;;;;;;4164150;28;20240;-80
2021/08/07 01:22:05;;;;;;;3.17;2.43;;;15.00;99.90;;;;;;4165129;28;20213;-80
2021/08/07 01:24:14;;;;;;;4.03;2.90;;;15.00;99.90;;;;;;4157674;28;20204;-79
2021/08/07 01:26:27;;;;;;;4.20;2.77;;;15.00;99.90;;;;;;4156211;28;20213;-80
2021/08/07 01:28:32;;;;;;;4.03;2.70;;;14.90;99.90;;;;;;4152617;28;20244;-80
2021/08/07 01:30:35;;;;;;;2.73;2.10;;;14.90;99.90;;;;;;4147312;28;20224;-80
2021/08/07 01:32:38;;;;;;;4.10;2.40;;;14.90;99.90;;;;;;4162102;28;20205;-80
2021/08/07 01:34:41;;;;;;;4.60;2.70;;;14.90;99.90;;;;;;4159858;28;20212;-80
2021/08/07 01:36:44;;;;;;;3.40;2.60;;;14.80;99.90;;;;;;4150723;28;20676;-80
2021/08/07 01:38:47;;;;;;;4.70;3.23;;;14.80;99.90;;;;;;4136073;28;20233;-81
2021/08/07 01:40:49;;;;;;;4.10;2.40;;;14.80;99.90;;;;;;4144197;28;20283;-81
2021/08/07 01:42:50;;;;;;;5.30;2.60;;;14.80;99.90;;;;;;4147712;28;20608;-81
2021/08/07 01:44:54;;;;;;;3.50;2.70;;;14.80;99.90;;;;;;4149237;28;20264;-81
2021/08/07 01:47:00;;;;;;;3.23;2.57;;;14.80;99.90;;;;;;4151791;28;20820;-81
2021/08/07 01:49:09;;;;;;;2.90;2.30;;;14.70;99.90;;;;;;4144825;28;20228;-81
2021/08/07 01:51:14;;;;;;;3.93;2.87;;;14.70;99.90;;;;;;4150327;28;20558;-81
2021/08/07 01:53:23;;;;;;;4.10;2.60;;;14.70;99.90;;;;;;4150594;28;20581;-81
2021/08/07 01:55:29;;;;;;;3.47;2.40;;;14.70;99.90;;;;;;4148851;28;20205;-81
2021/08/07 01:57:34;;;;;;;3.40;2.43;;;14.70;99.90;;;;;;4157971;28;20223;-81
2021/08/07 01:59:37;;;;;;;4.03;2.60;;;14.70;99.90;;;;;;4152658;28;20232;-81
2021/08/07 02:01:41;;;;;;;6.03;2.73;;;14.70;99.90;;;;;;4151613;28;20205;-81
2021/08/07 02:03:44;;;;;;;3.33;2.57;;;14.60;99.90;;;;;;4147495;28;20298;-81
2021/08/07 02:05:48;;;;;;;3.60;2.67;;;14.60;99.90;;;;;;4137184;28;20233;-81
2021/08/07 02:07:51;;;;;;;3.53;2.40;;;14.60;99.90;;;;;;4136269;28;20212;-81
2021/08/07 02:09:53;;;;;;;4.17;2.53;;;14.60;99.90;;;;;;4141225;28;20212;-81
2021/08/07 02:11:56;;;;;;;3.53;2.63;;;14.60;99.90;;;;;;4159642;28;20215;-81
2021/08/07 02:13:58;;;;;;;4.53;2.40;;;14.60;99.90;;;;;;4143411;28;20212;-81
2021/08/07 02:16:03;;;;;;;4.47;2.50;;;14.50;99.90;;;;;;4150173;28;20238;-81
2021/08/07 02:18:07;;;;;;;5.93;2.90;;;14.50;99.90;;;;;;4150906;28;20658;-81
2021/08/07 02:20:13;;;;;;;4.03;2.63;;;14.50;99.90;;;;;;4151400;28;20591;-82
2021/08/07 02:22:19;;;;;;;5.10;2.87;;;14.50;99.90;;;;;;4139224;28;20231;-81
2021/08/07 02:24:24;;;;;;;3.03;2.43;;;14.50;99.90;;;;;;4150575;28;20208;-81
2021/08/07 02:26:28;;;;;;;3.27;2.80;;;14.40;99.90;;;;;;4151012;28;20219;-81
2021/08/07 02:28:31;;;;;;;4.10;2.60;;;14.40;99.90;;;;;;4150595;28;21062;-81
2021/08/07 02:30:33;;;;;;;4.60;2.83;;;14.40;99.90;;;;;;4141975;28;20281;-81
2021/08/07 02:32:37;;;;;;;3.97;2.67;;;14.40;99.90;;;;;;4151168;28;20219;-81
2021/08/07 02:34:41;;;;;;;3.47;2.70;;;14.40;99.90;;;;;;4151811;28;20220;-82
2021/08/07 02:36:43;;;;;;;3.03;2.73;;;14.40;99.90;;;;;;4158251;28;20293;-81
2021/08/07 02:38:46;;;;;;;4.63;2.87;;;14.40;99.90;;;;;;4158611;28;20263;-81
2021/08/07 02:40:48;;;;;;;4.23;2.73;;;14.40;99.90;;;;;;4151505;28;20213;-81
2021/08/07 02:42:51;;;;;;;6.00;2.77;;;14.30;99.90;;;;;;4150973;28;20232;-81
2021/08/07 02:44:54;;;;;;;5.27;2.80;;;14.40;99.90;;;;;;4152261;28;20207;-81
2021/08/07 02:46:57;;;;;;;4.23;2.53;;;14.30;99.90;;;;;;4137265;28;20224;-81
2021/08/07 02:48:59;;;;;;;3.40;2.60;;;14.30;99.90;;;;;;4144205;28;20231;-81
2021/08/07 02:51:03;;;;;;;3.13;2.53;;;14.30;99.90;;;;;;4151846;28;20266;-81
2021/08/07 02:53:05;;;;;;;4.93;2.80;;;14.20;99.90;;;;;;4152034;28;20213;-81
2021/08/07 02:55:08;;;;;;;3.03;2.40;;;14.20;99.90;;;;;;4153525;28;20211;-81
2021/08/07 02:57:10;;;;;;;5.37;2.83;;;14.20;99.90;;;;;;4160538;28;20211;-81
2021/08/07 02:59:13;;;;;;;4.00;2.57;;;14.20;99.90;;;;;;4154461;28;20705;-81
2021/08/07 03:01:15;;;;;;;4.40;2.47;;;14.20;99.90;;;;;;4153799;28;20204;-81
2021/08/07 03:03:18;;;;;;;3.70;2.47;;;14.20;99.90;;;;;;4152354;28;20290;-81
2021/08/07 03:05:20;;;;;;;4.43;2.33;;;14.10;99.90;;;;;;4143621;28;20213;-81
2021/08/07 03:07:23;;;;;;;3.80;2.80;;;14.10;99.90;;;;;;4138290;28;20216;-81
2021/08/07 03:09:25;;;;;;;3.80;2.50;;;14.20;99.90;;;;;;4153374;28;20228;-81
2021/08/07 03:11:26;;;;;;;3.10;2.23;;;14.10;99.90;;;;;;4154694;28;20216;-80
2021/08/07 03:13:28;;;;;;;3.37;2.53;;;14.10;99.90;;;;;;4145830;28;20573;-80
2021/08/07 03:15:30;;;;;;;4.73;2.73;;;14.10;99.90;;;;;;4153009;28;20239;-81
2021/08/07 03:17:32;;;;;;;3.57;2.50;;;14.10;99.90;;;;;;4154345;28;20215;-81
2021/08/07 03:19:34;;;;;;;5.47;2.60;;;14.10;99.90;;;;;;4152865;28;20738;-81
2021/08/07 03:21:36;;;;;;;3.63;2.43;;;14.00;99.90;;;;;;4148089;28;20235;-81
2021/08/07 03:23:39;;;;;;;3.87;2.30;;;14.00;99.90;;;;;;4154395;28;20243;-81
2021/08/07 03:25:40;;;;;;;3.57;2.80;;;14.10;99.90;;;;;;4152949;28;20212;-81
2021/08/07 03:27:42;;;;;;;3.87;2.70;;;14.00;99.90;;;;;;4152451;28;20746;-81
2021/08/07 03:29:44;;;;;;;4.03;2.27;;;14.00;99.90;;;;;;4149468;28;20244;-81
2021/08/07 03:31:45;;;;;;;4.33;2.70;;;14.00;99.90;;;;;;4147673;28;20211;-81
2021/08/07 03:33:47;;;;;;;3.90;2.10;;;14.00;99.90;;;;;;4159704;28;20767;-81
2021/08/07 03:35:49;;;;;;;3.30;2.27;;;14.00;99.90;;;;;;4172598;28;20547;-81
2021/08/07 03:37:50;;;;;;;4.60;2.40;;;14.10;99.90;;;;;;4155014;28;20222;-82
2021/08/07 03:39:53;;;;;;;4.33;2.90;;;14.00;99.90;;;;;;4162868;28;20258;-81
2021/08/07 03:41:55;;;;;;;3.73;2.60;;;14.00;99.90;;;;;;4164360;28;20213;-81
2021/08/07 03:43:57;;;;;;;5.13;2.50;;;14.00;99.90;;;;;;4169698;28;20241;-81
2021/08/07 03:45:59;;;;;;;4.23;2.60;;;14.00;99.90;;;;;;4159747;28;20266;-81
2021/08/07 03:48:00;;;;;;;3.60;2.53;;;14.00;99.90;;;;;;4138394;28;20404;-81
2021/08/07 03:50:02;;;;;;;3.80;2.70;;;14.00;99.90;;;;;;4152147;28;20203;-81
2021/08/07 03:52:04;;;;;;;3.30;2.40;;;14.00;99.90;;;;;;4152696;28;20689;-82
2021/08/07 03:54:06;;;;;;;3.50;2.33;;;14.00;99.90;;;;;;4152914;28;20263;-81
2021/08/07 03:56:09;;;;;;;4.53;2.60;;;13.90;99.90;;;;;;4156997;28;20278;-81
2021/08/07 03:58:10;;;;;;;5.40;2.70;;;13.90;99.90;;;;;;4154939;28;20231;-81
2021/08/07 04:00:13;;;;;;;4.97;2.73;;;14.00;99.90;;;;;;4154658;28;20270;-81
2021/08/07 04:02:15;;;;;;;3.80;2.47;;;13.90;99.90;;;;;;4151681;28;20224;-81
2021/08/07 04:04:16;;;;;;;4.13;2.70;;;13.90;99.90;;;;;;4156494;28;20231;-81
2021/08/07 04:06:18;;;;;;;3.40;2.80;;;13.90;99.90;;;;;;4157837;28;20211;-81
2021/08/07 04:08:20;;;;;;;4.50;2.80;;;13.90;99.90;;;;;;4158907;28;20220;-81
2021/08/07 04:10:21;;;;;;;4.87;3.13;;;13.90;99.90;;;;;;4149134;28;20216;-81
2021/08/07 04:12:24;;;;;;;3.77;2.70;;;13.90;99.90;;;;;;4144180;28;20238;-81
2021/08/07 04:14:26;;;;;;;3.40;2.60;;;13.90;99.90;;;;;;4164203;28;20214;-81
2021/08/07 04:16:28;;;;;;;7.17;2.40;;;13.90;99.90;;;;;;4180979;28;20207;-81
2021/08/07 04:18:30;;;;;;;3.90;2.50;;;13.90;99.90;;;;;;4164202;28;20235;-82
2021/08/07 04:20:31;;;;;;;3.17;2.70;;;13.90;99.90;;;;;;4165773;28;20184;-82
2021/08/07 04:22:33;;;;;;;3.20;2.53;;;13.90;99.90;;;;;;4167651;28;20208;-82
2021/08/07 04:24:35;;;;;;;3.27;2.57;;;13.90;99.90;;;;;;4166863;28;20219;-82
2021/08/07 04:26:37;;;;;;;3.37;2.60;;;13.90;99.90;;;;;;4156024;28;20208;-81
2021/08/07 04:28:40;;;;;;;6.33;2.57;;;13.90;99.90;;;;;;4159240;28;20235;-81
2021/08/07 04:30:42;;;;;;;4.43;2.90;;;13.90;99.90;;;;;;4147691;28;20222;-81
2021/08/07 04:32:44;;;;;;;3.37;2.50;;;13.90;99.90;;;;;;4156344;28;20203;-81
2021/08/07 04:34:46;;;;;;;3.47;2.90;;;13.90;99.90;;;;;;4167898;28;20210;-81
2021/08/07 04:36:48;;;;;;;2.87;2.47;;;13.90;99.90;;;;;;4157739;28;20222;-81
2021/08/07 04:38:50;;;;;;;3.73;2.87;;;13.90;99.90;;;;;;4156426;28;20691;-81
2021/08/07 04:40:51;;;;;;;3.43;2.67;;;13.90;99.90;;;;;;4159336;28;20761;-81
2021/08/07 04:42:53;;;;;;;4.57;2.73;;;13.90;99.90;;;;;;4163700;28;20222;-81
2021/08/07 04:44:56;;;;;;;3.30;2.67;;;13.90;99.90;;;;;;4163049;28;20278;-81
2021/08/07 04:46:58;;;;;;;4.13;2.60;;;13.90;99.90;;;;;;4153578;28;20289;-81
2021/08/07 04:49:00;;;;;;;6.20;2.93;;;13.90;99.90;;;;;;4152256;28;20277;-81
2021/08/07 04:51:02;;;;;;;3.40;2.60;;;13.90;99.90;;;;;;4150237;28;20270;-81
2021/08/07 04:53:05;;;;;;;3.53;2.50;;;13.90;99.90;;;;;;4148746;28;20246;-81
2021/08/07 04:55:07;;;;;;;4.57;2.60;;;13.90;99.90;;;;;;4149183;28;20208;-81
2021/08/07 04:57:09;;;;;;;3.60;2.60;;;13.90;99.90;;;;;;4148241;28;20215;-81
2021/08/07 04:59:11;;;;;;;2.97;2.50;;;13.90;99.90;;;;;;4146365;28;20259;-81
2021/08/07 05:01:14;;;;;;;4.13;2.53;;;13.90;99.90;;;;;;4149210;28;20282;-81
2021/08/07 05:03:15;;;;;;;2.77;2.47;;;13.90;99.90;;;;;;4146993;28;20666;-81
2021/08/07 05:05:18;;;;;;;3.70;2.73;;;13.90;99.90;;;;;;4147823;28;20231;-81
2021/08/07 05:07:19;;;;;;;3.53;2.30;;;13.90;99.90;;;;;;4146832;28;20203;-81
2021/08/07 05:09:21;;;;;;;4.87;2.40;;;14.00;99.90;;;;;;4149772;28;20235;-81
2021/08/07 05:11:23;;;;;;;3.30;2.73;;;13.90;99.90;;;;;;4149844;28;20357;-81
2021/08/07 05:13:24;;;;;;;2.83;2.33;;;13.90;99.90;;;;;;4148688;28;20203;-81
2021/08/07 05:15:26;;;;;;;3.80;2.40;;;14.00;99.90;;;;;;4145445;28;20208;-81
2021/08/07 05:17:29;;;;;;;5.83;2.40;;;14.00;99.90;;;;;;4148622;28;20677;-81
2021/08/07 05:19:31;;;;;;;3.37;2.50;;;14.00;99.90;;;;;;4149867;28;20730;-81
2021/08/07 05:21:33;;;;;;;2.67;2.43;;;14.00;99.90;;;;;;4149680;28;20215;-81
2021/08/07 05:23:34;;;;;;;3.73;2.40;;;14.10;99.90;;;;;;4149391;28;20262;-81
2021/08/07 05:25:36;;;;;;;3.27;2.70;;;14.00;99.90;;;;;;4150496;28;20212;-81
2021/08/07 05:27:38;;;;;;;3.00;2.40;;;14.10;99.90;;;;;;4154140;28;20230;-81
2021/08/07 05:29:40;;;;;;;3.83;2.30;;;14.10;99.90;;;;;;4152738;28;20240;-81
2021/08/07 05:31:42;;;;;;;3.40;2.60;;;14.10;99.90;;;;;;4155460;28;20207;-81
2021/08/07 05:33:45;;;;;;;3.07;2.30;;;14.20;99.90;;;;;;4152455;28;20905;-81
2021/08/07 05:35:46;;;;;;;3.77;2.43;;;14.20;99.90;;;;;;4153115;28;20208;-81
2021/08/07 05:37:48;;;;;;;4.00;2.57;;;14.30;99.90;;;;;;4155166;28;20350;-81
2021/08/07 05:39:50;;;;;;;5.93;2.83;;;14.40;99.90;;;;;;4148501;28;20208;-81
2021/08/07 05:41:51;;;;;;;3.83;2.47;;;14.30;99.90;;;;;;4153061;28;20204;-81
2021/08/07 05:43:53;;;;;;;6.83;2.73;;;14.40;99.90;;;;;;4151542;28;20300;-81
2021/08/07 05:45:55;;;;;;;4.67;2.23;;;14.40;99.90;;;;;;4156751;28;20243;-82
2021/08/07 05:47:56;;;;;;;3.37;2.10;;;14.40;99.90;;;;;;4156531;28;20224;-81
2021/08/07 05:49:59;;;;;;;2.87;2.40;;;14.50;99.90;;;;;;4155464;28;20259;-81
2021/08/07 05:52:01;;;;;;;2.70;1.77;;;14.50;99.90;;;;;;4154629;28;20243;-81
2021/08/07 05:54:03;;;;;;;2.57;2.17;;;14.60;99.90;;;;;;4155458;28;20229;-81
2021/08/07 05:56:05;;;;;;;4.83;2.17;;;14.60;99.90;;;;;;4156338;28;20207;-81
2021/08/07 05:58:08;;;;;;;3.83;2.00;;;14.60;99.90;;;;;;4155763;28;20208;-81
2021/08/07 06:00:10;;;;;;;2.93;2.20;;;14.60;99.90;;;;;;4160531;28;20208;-81
2021/08/07 06:02:12;;;;;;;3.10;2.10;;;14.70;99.90;;;;;;4163778;28;20446;-81
2021/08/07 06:04:14;;;;;;;3.43;2.10;;;14.70;99.90;;;;;;4166440;28;20231;-81
2021/08/07 06:06:17;;;;;;;2.70;2.00;;;14.70;99.90;;;;;;4164754;28;20209;-81
2021/08/07 06:08:19;;;;;;;2.40;1.80;;;14.80;99.90;;;;;;4165457;28;20216;-81
2021/08/07 06:10:20;;;;;;;3.97;2.00;;;14.90;99.90;;;;;;4158689;28;20235;-81
2021/08/07 06:12:22;;;;;;;3.37;2.10;;;14.90;99.90;;;;;;4153139;28;20213;-81
2021/08/07 06:14:24;;;;;;;2.70;2.30;;;14.90;99.90;;;;;;4153563;28;20265;-81
2021/08/07 06:16:26;;;;;;;2.80;1.83;;;15.00;99.90;;;;;;4153947;28;20233;-81
2021/08/07 06:18:28;;;;;;;4.60;2.00;;;15.10;99.90;;;;;;4152865;28;20244;-81
2021/08/07 06:20:30;;;;;;;4.23;2.00;;;15.10;99.90;;;;;;4153035;28;20219;-81
2021/08/07 06:22:33;;;;;;;2.53;2.00;;;15.20;99.90;;;;;;4155063;28;20221;-81
2021/08/07 06:24:35;;;;;;;3.00;2.20;;;15.30;99.90;;;;;;4152958;28;20647;-81
2021/08/07 06:26:37;;;;;;;2.73;1.80;;;15.30;99.90;;;;;;4152031;28;20670;-81
2021/08/07 06:28:39;;;;;;;2.00;1.73;;;15.40;99.90;;;;;;4153308;28;20250;-81
2021/08/07 06:30:45;;;;;;;2.90;1.80;;;15.50;99.90;;;;;;4153110;28;20218;-81
2021/08/07 06:32:47;;;;;;;3.10;1.93;;;15.50;99.90;;;;;;4155617;28;20235;-81
2021/08/07 06:34:49;;;;;;;2.20;1.60;;;15.60;99.90;;;;;;4155437;28;20562;-81
2021/08/07 06:36:50;;;;;;;2.13;1.70;;;15.60;99.90;;;;;;4153845;28;20593;-81
2021/08/07 06:38:53;;;;;;;2.13;1.50;;;15.70;99.90;;;;;;4153112;28;20753;-80
2021/08/07 06:40:55;;;;;;;2.43;1.63;;;15.70;99.90;;;;;;4155534;28;20624;-81
2021/08/07 06:42:57;;;;;;;4.20;1.90;;;15.80;99.90;;;;;;4155026;28;20268;-81
2021/08/07 06:44:59;;;;;;;2.13;1.70;;;15.90;99.90;;;;;;4159597;28;20259;-82
2021/08/07 06:47:01;;;;;;;1.80;1.70;;;15.90;99.90;;;;;;4157398;28;20215;-81
2021/08/07 06:49:02;;;;;;;3.00;1.97;;;16.00;99.90;;;;;;4152379;28;20289;-81
2021/08/07 06:51:05;;;;;;;3.77;2.20;;;16.00;99.90;;;;;;4158454;28;20214;-81
2021/08/07 06:53:07;;;;;;;3.20;1.73;;;16.10;99.90;;;;;;4161339;28;20307;-81
2021/08/07 06:55:11;;;;;;;2.13;1.30;;;16.00;99.90;;;;;;4158017;28;20218;-81
2021/08/07 06:57:15;;;;;;;1.97;1.30;;;16.20;99.90;;;;;;4157516;28;20208;-81
2021/08/07 06:59:17;;;;;;;2.17;1.53;;;16.30;99.90;;;;;;4153681;28;20224;-81
2021/08/07 07:01:19;;;;;;;3.03;1.60;;;16.30;99.90;;;;;;4151846;28;20270;-81
2021/08/07 07:03:21;;;;;;;5.03;1.30;;;16.30;99.90;;;;;;4151601;28;20215;-81
2021/08/07 07:05:23;;;;;;;2.10;1.33;;;16.40;99.90;;;;;;4151418;28;20706;-81
2021/08/07 07:07:24;;;;;;;2.83;1.40;;;16.40;99.90;;;;;;4148125;28;20214;-81
2021/08/07 07:09:26;;;;;;;3.97;1.70;;;16.50;99.90;;;;;;4150985;28;20289;-81
2021/08/07 07:11:29;;;;;;;2.57;1.60;;;16.50;99.90;;;;;;4151029;28;20196;-81
2021/08/07 07:13:31;;;;;;;2.93;1.50;;;16.60;99.90;;;;;;4150640;28;20270;-81
2021/08/07 07:15:33;;;;;;;2.23;1.50;;;16.70;99.90;;;;;;4149809;28;20618;-81
2021/08/07 07:17:36;;;;;;;3.63;1.50;;;16.70;99.90;;;;;;4151780;28;20599;-81
2021/08/07 07:19:38;;;;;;;2.40;1.60;;;16.70;99.90;;;;;;4150550;28;20221;-81
2021/08/07 07:21:40;;;;;;;1.30;1.20;;;16.70;99.90;;;;;;4145381;28;20215;-81
2021/08/07 07:23:41;;;;;;;1.30;1.10;;;16.90;99.90;;;;;;4153863;28;20208;-81
2021/08/07 07:25:43;;;;;;;1.73;1.33;;;16.90;99.90;;;;;;4147980;28;20275;-81
2021/08/07 07:27:46;;;;;;;2.47;1.40;;;16.90;99.90;;;;;;4156723;28;20638;-81
2021/08/07 07:29:48;;;;;;;4.10;1.47;;;17.00;99.90;;;;;;4141014;28;20251;-81
2021/08/07 07:31:50;;;;;;;2.43;1.50;;;17.10;99.90;;;;;;4150227;28;20216;-81
2021/08/07 07:33:52;;;;;;;2.37;1.53;;;17.10;99.90;;;;;;4149942;28;20262;-81
2021/08/07 07:35:53;;;;;;;1.60;1.20;;;17.20;99.90;;;;;;4150396;28;20212;-81
2021/08/07 07:37:55;;;;;;;2.70;1.50;;;17.20;99.90;;;;;;4150427;28;20262;-81
2021/08/07 07:39:57;;;;;;;2.93;1.33;;;17.30;99.90;;;;;;4147154;28;20239;-81
2021/08/07 07:41:59;;;;;;;1.67;1.27;;;17.40;99.90;;;;;;4150187;28;20212;-81
2021/08/07 07:44:02;;;;;;;1.63;1.17;;;17.40;99.90;;;;;;4149500;28;20597;-81
2021/08/07 07:46:04;;;;;;;6.37;1.50;;;17.50;99.90;;;;;;4149607;28;20236;-81
2021/08/07 07:48:06;;;;;;;2.03;1.20;;;17.60;99.90;;;;;;4134528;28;20213;-81
2021/08/07 07:50:08;;;;;;;1.63;1.07;;;17.60;99.90;;;;;;4146532;28;20217;-81
2021/08/07 07:52:10;;;;;;;2.80;1.30;;;17.70;99.90;;;;;;4151358;28;20212;-81
2021/08/07 07:54:12;;;;;;;2.07;1.20;;;17.80;99.90;;;;;;4154620;28;20200;-82
2021/08/07 07:56:13;;;;;;;2.07;1.30;;;17.80;99.90;;;;;;4158392;28;20210;-81
2021/08/07 07:58:15;;;;;;;5.73;1.60;;;17.90;99.90;;;;;;4155285;28;20242;-81
2021/08/07 08:00:18;;;;;;;2.27;1.63;;;17.90;99.90;;;;;;4148863;28;20669;-81
2021/08/07 08:02:20;;;;;;;1.83;1.40;;;18.00;99.90;;;;;;4155964;28;20215;-81
2021/08/07 08:04:21;;;;;;;1.67;1.20;;;18.10;99.90;;;;;;4152468;28;20248;-81
2021/08/07 08:06:23;;;;;;;3.00;1.53;;;18.10;99.90;;;;;;4148195;28;20232;-81
2021/08/07 08:08:25;;;;;;;1.93;1.20;;;18.20;99.90;;;;;;4149806;28;20291;-81
2021/08/07 08:10:27;;;;;;;2.10;1.20;;;18.20;99.90;;;;;;4149069;28;20207;-81
2021/08/07 08:12:28;;;;;;;2.10;1.40;;;18.30;99.90;;;;;;4148992;28;20210;-81
2021/08/07 08:14:30;;;;;;;3.90;1.37;;;18.40;99.90;;;;;;4144612;28;20242;-81
2021/08/07 08:16:33;;;;;;;1.67;1.20;;;18.50;99.90;;;;;;4150186;28;20211;-81
2021/08/07 08:18:36;;;;;;;1.37;1.10;;;18.50;99.90;;;;;;4149988;28;20599;-81
2021/08/07 08:20:39;;;;;;;1.20;1.10;;;18.60;99.90;;;;;;4150813;28;20212;-81
2021/08/07 08:22:41;;;;;;;2.37;1.20;;;18.70;99.90;;;;;;4143722;28;20683;-81
2021/08/07 08:24:43;;;;;;;1.60;1.10;;;18.70;99.90;;;;;;4151702;28;20211;-81
2021/08/07 08:26:45;;;;;;;1.70;1.03;;;18.70;99.90;;;;;;4157350;28;20213;-81
2021/08/07 08:28:46;;;;;;;2.10;1.10;;;18.80;99.90;;;;;;4155698;28;20236;-81
2021/08/07 08:30:48;;;;;;;2.23;1.30;;;18.80;99.90;;;;;;4154002;28;20220;-81
2021/08/07 08:32:51;;;;;;;1.80;0.80;;;18.90;99.90;;;;;;4156137;28;20226;-82
2021/08/07 08:34:53;;;;;;;1.73;1.17;;;18.90;99.90;;;;;;4153929;28;20216;-81
2021/08/07 08:36:54;;;;;;;1.30;0.90;;;19.00;99.90;;;;;;4148247;28;20265;-81
2021/08/07 08:38:56;;;;;;;2.20;1.20;;;19.00;99.90;;;;;;4144830;28;20319;-81
2021/08/07 08:40:59;;;;;;;1.10;1.00;;;19.10;99.90;;;;;;4148316;28;20204;-81
2021/08/07 08:43:01;;;;;;;3.40;1.10;;;19.10;99.90;;;;;;4148926;28;20236;-81
2021/08/07 08:45:04;;;;;;;2.30;0.97;;;19.20;99.90;;;;;;4146746;28;20228;-81
2021/08/07 08:47:08;;;;;;;2.90;1.10;;;19.30;99.90;;;;;;4138615;28;20278;-81
2021/08/07 08:49:15;;;;;;;2.47;0.83;;;19.30;99.90;;;;;;4148861;28;20317;-82
2021/08/07 08:51:17;;;;;;;1.23;0.90;;;19.30;99.90;;;;;;4157232;28;20237;-81
2021/08/07 08:53:19;;;;;;;1.43;1.00;;;19.50;99.90;;;;;;4163700;28;20228;-81
2021/08/07 08:55:21;;;;;;;1.93;0.80;;;19.50;99.90;;;;;;4141194;28;20213;-81
2021/08/07 08:57:23;;;;;;;1.80;1.10;;;19.50;99.90;;;;;;4150112;28;20627;-82
2021/08/07 08:59:25;;;;;;;2.47;1.10;;;19.60;99.90;;;;;;4148640;28;20229;-81
2021/08/07 09:01:27;;;;;;;1.17;0.90;;;19.70;99.90;;;;;;4147685;28;20253;-81
2021/08/07 09:03:29;;;;;;;3.23;1.00;;;19.70;99.90;;;;;;4140297;28;20248;-81
2021/08/07 09:05:32;;;;;;;0.97;0.80;;;19.80;99.90;;;;;;4146340;28;20278;-81
2021/08/07 09:07:33;;;;;;;0.70;0.70;;;19.80;99.90;;;;;;4149370;28;20211;-82
2021/08/07 09:09:37;;;;;;;1.27;0.80;;;19.80;99.90;;;;;;4146692;28;20253;-81
2021/08/07 09:11:40;;;;;;;2.23;0.90;;;20.00;99.90;;;;;;4156059;28;20219;-81
2021/08/07 09:13:43;;;;;;;1.40;0.87;;;20.00;99.90;;;;;;4170505;28;20201;-81
2021/08/07 09:15:45;;;;;;;2.73;1.00;;;20.10;99.90;;;;;;4156253;28;20300;-81
2021/08/07 09:17:46;;;;;;;1.10;0.90;;;20.20;99.90;;;;;;4159752;28;20757;-81
2021/08/07 09:19:54;;;;;;;1.10;0.70;;;20.20;99.90;;;;;;4149554;28;20215;-81
2021/08/07 09:22:07;;;;;;;1.63;0.80;;;20.30;99.90;;;;;;4155094;28;20202;-81
2021/08/07 09:24:09;;;;;;;2.23;1.03;;;20.50;99.90;;;;;;4149823;28;20740;-81
2021/08/07 09:26:13;;;;;;;1.27;0.80;;;20.50;99.90;;;;;;4146300;28;20227;-81
2021/08/07 09:30:31;;;;;;;2.40;0.87;;;20.70;99.90;;;;;;4120043;28;20232;-76
2021/08/07 09:32:45;;;;;;;1.00;0.90;;;20.80;99.90;;;;;;4129540;28;20219;-77
2021/08/07 09:35:07;;;;;;;1.93;0.90;;;20.80;99.90;;;;;;4128552;28;20211;-76
2021/08/07 09:37:18;;;;;;;1.93;0.90;;;20.90;99.90;;;;;;4127016;28;20228;-76
2021/08/07 09:39:35;;;;;;;2.00;1.17;;;21.00;99.90;;;;;;4126933;28;20235;-76
2021/08/07 09:41:56;;;;;;;1.50;0.80;;;21.10;99.90;;;;;;4131376;28;20230;-76
2021/08/07 09:43:58;;;;;;;2.03;1.10;;;21.10;99.90;;;;;;4128896;28;20746;-76
2021/08/07 09:46:05;;;;;;;2.00;0.90;;;21.20;99.90;;;;;;4120684;28;20241;-76
2021/08/07 09:48:10;;;;;;;1.23;0.87;;;21.30;99.90;;;;;;4127739;28;20968;-76
2021/08/07 09:50:22;;;;;;;1.20;0.90;;;21.40;99.90;;;;;;4126976;28;20289;-76
2021/08/07 09:52:36;;;;;;;3.10;0.93;;;21.50;99.90;;;;;;4128480;28;20206;-76
2021/08/07 09:54:39;;;;;;;2.03;1.00;;;21.70;99.50;;;;;;4127195;28;20223;-76
2021/08/07 09:56:50;;;;;;;1.47;1.10;;;21.70;99.90;;;;;;4131483;28;20224;-77
2021/08/07 09:59:05;;;;;;;1.57;1.10;;;21.80;99.60;;;;;;4125870;28;20230;-76
2021/08/07 10:01:07;;;;;;;3.40;1.10;;;21.90;99.90;;;;;;4128996;28;20203;-77
2021/08/07 10:03:17;;;;;;;1.60;0.87;;;22.00;99.90;;;;;;4127107;28;20216;-76
2021/08/07 10:05:27;;;;;;;2.50;0.90;;;22.10;99.30;;;;;;4129931;28;20289;-76
2021/08/07 10:07:30;;;;;;;1.80;1.30;;;22.20;99.90;;;;;;4114431;28;20718;-77
2021/08/07 10:09:34;;;;;;;2.37;1.03;;;22.30;99.30;;;;;;4125222;28;20236;-77
2021/08/07 10:11:36;;;;;;;2.77;1.13;;;22.40;99.90;;;;;;4136665;28;20218;-76
2021/08/07 10:13:38;;;;;;;1.70;0.93;;;22.50;99.90;;;;;;4134302;28;20219;-76
2021/08/07 10:15:41;;;;;;;1.93;1.20;;;22.60;99.90;;;;;;4127115;28;20267;-76
2021/08/07 10:17:43;;;;;;;2.10;1.10;;;22.70;99.90;;;;;;4130212;28;20212;-77
2021/08/07 10:19:47;;;;;;;1.73;1.03;;;22.80;99.70;;;;;;4132948;28;20228;-77
2021/08/07 10:21:50;;;;;;;2.10;1.10;;;22.90;97.90;;;;;;4133090;28;20226;-77
2021/08/07 10:23:55;;;;;;;1.60;0.90;;;23.00;99.10;;;;;;4131623;28;20236;-77
2021/08/07 10:25:57;;;;;;;2.20;1.00;;;23.10;96.70;;;;;;4131239;28;20229;-77
2021/08/07 10:28:01;;;;;;;1.53;0.90;;;23.10;96.00;;;;;;4132701;28;20208;-76
2021/08/07 10:30:06;;;;;;;3.27;1.07;;;23.10;93.00;;;;;;4122968;28;20645;-76
2021/08/07 10:32:09;;;;;;;1.67;0.90;;;23.10;92.30;;;;;;4132637;28;20240;-77
2021/08/07 10:34:15;;;;;;;3.37;0.93;;;23.10;94.50;;;;;;4132771;28;20367;-76
2021/08/07 10:36:17;;;;;;;2.83;0.73;;;23.20;94.20;;;;;;4132613;28;20208;-77
2021/08/07 10:38:18;;;;;;;2.53;0.97;;;23.20;95.70;;;;;;4132137;28;20667;-76
2021/08/07 10:40:22;;;;;;;1.47;0.70;;;23.30;95.90;;;;;;4132264;28;20213;-77
2021/08/07 10:42:24;;;;;;;2.90;1.10;;;23.40;93.80;;;;;;4132364;28;20270;-76
2021/08/07 10:44:27;;;;;;;3.10;0.87;;;23.40;93.70;;;;;;4130252;28;20223;-77